Acra, New York
Current Conditions -  °F | °C
As of 12:51 PM on Friday 31 Oct 2014 (Local Time) from KALB Reporting Station
Broken Clouds Broken Clouds  
Wind Chill: 51°   Ceiling: 26000
Heat Index: 51°   Visibility: 10mi
Dew Point: 33°   Wind: 3mph
Humidity: 50%   Direction: 330°NNW
Pressure: 30"   Gusts: NA
Location:  42.31°N, 74.05°W
Report Text: KALB 311651Z 33003KT 10SM FEW035 FEW044 BKN260 11/01 A3000 RMK AO2 SLP161 T01060006
Loading
Personal Weather Stations






























Interactive Weather Map
Tropical Storm Tracking
New forecast layout! Learn more

10-Day Weather Forecast

Advertisements
Track Severe Weather on mobile